createdAt,value
2019-06-20T00:00:08.374Z,12.57
2019-06-20T00:02:37.831Z,13.83
2019-06-20T00:05:08.014Z,13.97
2019-06-20T00:07:36.665Z,8.93
2019-06-20T00:10:06.074Z,11.87
2019-06-20T00:12:34.733Z,12.43
2019-06-20T00:15:04.225Z,12.37
2019-06-20T00:17:32.825Z,12.57
2019-06-20T00:20:01.538Z,10.30
2019-06-20T00:22:30.381Z,10.37
2019-06-20T00:25:02.794Z,13.43
2019-06-20T00:27:29.281Z,14.83
2019-06-20T00:29:57.900Z,13.77
2019-06-20T00:32:28.796Z,12.37
2019-06-20T00:34:57.477Z,16.63
2019-06-20T00:37:26.068Z,14.60
2019-06-20T00:39:54.704Z,14.63
2019-06-20T00:42:23.436Z,14.07
2019-06-20T00:44:52.138Z,13.23
2019-06-20T00:47:20.811Z,16.97
2019-06-20T00:49:49.604Z,13.17
2019-06-20T00:52:18.427Z,17.10
2019-06-20T00:54:48.118Z,19.17
2019-06-20T00:57:16.776Z,14.40
2019-06-20T00:59:45.499Z,15.40
2019-06-20T01:02:14.093Z,12.73
2019-06-20T01:04:42.873Z,11.53
2019-06-20T01:07:11.465Z,16.00
2019-06-20T01:09:40.301Z,16.27
2019-06-20T01:12:08.966Z,18.80
2019-06-20T01:14:37.686Z,19.17
2019-06-20T01:17:06.866Z,22.13
2019-06-20T01:19:35.426Z,22.23
2019-06-20T01:22:04.289Z,19.43
2019-06-20T01:24:33.313Z,19.20
2019-06-20T01:27:02.102Z,15.80
2019-06-20T01:29:30.862Z,11.00
2019-06-20T01:31:59.495Z,17.67
2019-06-20T01:34:28.173Z,12.93
2019-06-20T01:36:56.732Z,12.53
2019-06-20T01:39:25.300Z,11.43
2019-06-20T01:42:02.702Z,9.00
2019-06-20T01:44:30.341Z,11.43
2019-06-20T01:47:02.901Z,11.30
2019-06-20T01:49:31.595Z,12.37
2019-06-20T01:52:00.249Z,9.97
2019-06-20T01:54:32.138Z,11.90
2019-06-20T01:57:00.971Z,10.90
2019-06-20T01:59:29.659Z,11.23
2019-06-20T02:01:58.356Z,13.37
2019-06-20T02:04:27.022Z,13.60
2019-06-20T02:06:55.654Z,11.07
2019-06-20T02:09:24.246Z,13.27
2019-06-20T02:11:52.941Z,11.73
2019-06-20T02:14:21.653Z,13.17
2019-06-20T02:16:50.305Z,10.77
2019-06-20T02:19:18.998Z,14.13
2019-06-20T02:21:47.565Z,15.97
2019-06-20T02:24:16.143Z,14.53
2019-06-20T02:26:44.777Z,15.07
2019-06-20T02:29:14.465Z,17.83
2019-06-20T02:31:43.088Z,13.13
2019-06-20T02:34:11.746Z,16.40
2019-06-20T02:36:40.451Z,19.70
2019-06-20T02:39:09.183Z,11.80
2019-06-20T02:41:37.882Z,15.60
2019-06-20T02:44:27.813Z,18.50
2019-06-20T02:46:37.854Z,21.07
2019-06-20T02:49:06.515Z,22.80
2019-06-20T02:51:35.443Z,15.23
2019-06-20T02:54:04.474Z,17.67
2019-06-20T02:56:33.028Z,14.03
2019-06-20T02:59:01.645Z,13.20
2019-06-20T03:01:30.179Z,10.60
2019-06-20T03:03:58.838Z,10.03
2019-06-20T03:06:27.466Z,11.13
2019-06-20T03:08:56.059Z,17.47
2019-06-20T03:11:24.686Z,14.47
2019-06-20T03:13:53.276Z,14.50
2019-06-20T03:16:21.833Z,13.77
2019-06-20T03:18:50.426Z,13.00
2019-06-20T03:21:18.987Z,18.80
2019-06-20T03:23:47.564Z,17.40
2019-06-20T03:26:16.257Z,11.73
2019-06-20T03:28:44.850Z,23.20
2019-06-20T03:31:19.513Z,14.97
2019-06-20T03:33:48.251Z,12.87
2019-06-20T03:36:16.796Z,16.83
2019-06-20T03:38:45.395Z,10.53
2019-06-20T03:41:14.099Z,13.03
2019-06-20T03:43:42.690Z,9.73
2019-06-20T03:46:11.312Z,12.43
2019-06-20T03:48:39.902Z,12.33
2019-06-20T03:51:08.487Z,11.97
2019-06-20T03:53:37.075Z,11.23
2019-06-20T03:56:05.697Z,10.73
2019-06-20T03:58:34.553Z,14.30
2019-06-20T04:01:03.192Z,11.97
2019-06-20T04:03:31.765Z,11.77
2019-06-20T04:06:00.409Z,9.47
2019-06-20T04:08:29.084Z,8.13
2019-06-20T04:10:57.958Z,8.07
2019-06-20T04:13:26.627Z,13.33
2019-06-20T04:15:55.181Z,12.73
2019-06-20T04:18:23.769Z,9.93
2019-06-20T04:20:52.398Z,10.37
2019-06-20T04:23:20.955Z,9.93
2019-06-20T04:25:49.550Z,11.33
2019-06-20T04:28:18.114Z,11.90
2019-06-20T04:30:46.708Z,11.53
2019-06-20T04:33:15.269Z,9.93
2019-06-20T04:35:43.925Z,7.97
2019-06-20T04:38:12.761Z,8.93
2019-06-20T04:40:41.858Z,7.10
2019-06-20T04:43:10.506Z,7.37
2019-06-20T04:45:40.849Z,7.43
2019-06-20T04:48:09.531Z,8.43
2019-06-20T04:50:38.181Z,7.53
2019-06-20T04:53:06.990Z,10.40
2019-06-20T04:55:35.798Z,9.53
2019-06-20T04:58:04.305Z,7.30
2019-06-20T05:00:32.961Z,8.20
2019-06-20T05:03:01.512Z,8.37
2019-06-20T05:05:30.242Z,9.70
2019-06-20T05:07:58.788Z,6.37
2019-06-20T05:10:27.526Z,8.73
2019-06-20T05:12:56.263Z,5.67
2019-06-20T05:15:24.803Z,6.40
2019-06-20T05:17:53.457Z,7.33
2019-06-20T05:20:22.055Z,6.33
2019-06-20T05:22:50.664Z,5.93
2019-06-20T05:25:19.280Z,4.73
2019-06-20T05:27:47.869Z,6.37
2019-06-20T05:30:16.864Z,7.07
2019-06-20T05:32:45.489Z,6.87
2019-06-20T05:35:14.314Z,8.73
2019-06-20T05:37:42.869Z,7.63
2019-06-20T05:40:12.094Z,8.97
2019-06-20T05:42:40.724Z,9.27
2019-06-20T05:45:10.554Z,5.83
2019-06-20T05:47:39.256Z,7.03
2019-06-20T05:50:09.454Z,12.23
2019-06-20T05:52:38.011Z,6.50
2019-06-20T05:55:08.403Z,7.10
2019-06-20T05:57:36.981Z,9.10
2019-06-20T06:00:10.671Z,6.57
2019-06-20T06:02:40.189Z,7.33
2019-06-20T06:05:09.513Z,9.20
2019-06-20T06:07:38.068Z,6.20
2019-06-20T06:10:07.807Z,5.63
2019-06-20T06:12:36.522Z,7.07
2019-06-20T06:15:08.631Z,7.77
2019-06-20T06:17:37.533Z,7.77
2019-06-20T06:20:08.793Z,7.90
2019-06-20T06:22:37.490Z,4.27
2019-06-20T06:25:06.817Z,6.10
2019-06-20T06:27:35.461Z,5.83
2019-06-20T06:30:06.870Z,7.07
2019-06-20T06:32:40.220Z,6.20
2019-06-20T06:35:07.592Z,6.77
2019-06-20T06:37:36.398Z,5.70
2019-06-20T06:40:11.209Z,6.70
2019-06-20T06:42:39.834Z,5.03
2019-06-20T06:45:09.332Z,5.47
2019-06-20T06:47:38.347Z,8.20
2019-06-20T06:50:07.674Z,8.83
2019-06-20T06:52:36.403Z,7.50
2019-06-20T06:55:07.173Z,7.27
2019-06-20T06:57:36.143Z,8.97
2019-06-20T07:00:10.133Z,6.07
2019-06-20T07:02:38.819Z,5.47
2019-06-20T07:05:08.064Z,6.03
2019-06-20T07:07:36.802Z,7.77
2019-06-20T07:10:07.015Z,5.73
2019-06-20T07:12:35.611Z,7.30
2019-06-20T07:15:07.151Z,5.97
2019-06-20T07:17:35.852Z,8.30
2019-06-20T07:20:06.992Z,6.00
2019-06-20T07:22:36.618Z,8.37
2019-06-20T07:25:06.894Z,8.07
2019-06-20T07:27:35.557Z,7.07
2019-06-20T07:30:06.650Z,7.70
2019-06-20T07:32:35.386Z,5.80
2019-06-20T07:35:06.483Z,5.80
2019-06-20T07:37:35.271Z,6.50
2019-06-20T07:40:06.230Z,6.57
2019-06-20T07:42:34.900Z,7.43
2019-06-20T07:45:07.667Z,7.67
2019-06-20T07:47:37.190Z,5.13
2019-06-20T07:50:10.330Z,8.87
2019-06-20T07:52:39.084Z,4.87
2019-06-20T07:55:09.212Z,8.17
2019-06-20T07:57:37.896Z,8.17
2019-06-20T08:00:09.362Z,8.87
2019-06-20T08:02:38.159Z,5.13
2019-06-20T08:05:07.463Z,9.20
2019-06-20T08:07:36.203Z,5.67
2019-06-20T08:10:08.412Z,7.23
2019-06-20T08:12:37.157Z,8.63
2019-06-20T08:15:15.150Z,7.17
2019-06-20T08:17:38.377Z,6.07
2019-06-20T08:20:09.052Z,9.53
2019-06-20T08:22:37.674Z,4.30
2019-06-20T08:25:09.107Z,7.43
2019-06-20T08:27:50.030Z,5.83
2019-06-20T08:30:21.826Z,9.13
2019-06-20T08:32:50.652Z,8.23
2019-06-20T08:35:24.093Z,7.13
2019-06-20T08:37:54.018Z,7.53
2019-06-20T08:40:24.208Z,8.97
2019-06-20T08:42:53.524Z,5.63
2019-06-20T08:45:27.138Z,6.70
2019-06-20T08:47:57.015Z,6.13
2019-06-20T08:50:26.416Z,5.80
2019-06-20T08:52:56.079Z,5.35
2019-06-20T08:55:25.653Z,5.03
2019-06-20T08:57:55.651Z,6.12
2019-06-20T09:00:26.256Z,4.83
2019-06-20T09:02:56.863Z,5.05
2019-06-20T09:05:26.298Z,10.48
2019-06-20T09:07:56.757Z,6.60
2019-06-20T09:10:28.682Z,6.20
2019-06-20T09:12:59.121Z,5.87
2019-06-20T09:15:29.384Z,4.33
2019-06-20T09:18:00.734Z,4.60
2019-06-20T09:20:28.738Z,5.70
2019-06-20T09:22:58.854Z,4.08
2019-06-20T09:25:27.874Z,2.40
2019-06-20T09:27:58.070Z,5.62
2019-06-20T09:30:27.133Z,5.53
2019-06-20T09:32:55.857Z,4.58
2019-06-20T09:35:25.470Z,5.45
2019-06-20T09:37:55.169Z,4.12
2019-06-20T09:40:24.145Z,3.80
2019-06-20T09:42:52.996Z,7.25
2019-06-20T09:45:22.157Z,4.20
2019-06-20T09:47:52.116Z,5.75
2019-06-20T09:50:22.036Z,4.47
2019-06-20T09:52:51.560Z,4.85
2019-06-20T09:55:21.945Z,7.58
2019-06-20T09:57:51.910Z,2.75
2019-06-20T10:00:26.629Z,5.33
2019-06-20T10:02:56.331Z,4.20
2019-06-20T10:05:26.121Z,5.65
2019-06-20T10:07:56.637Z,5.67
2019-06-20T10:10:29.860Z,6.10
2019-06-20T10:12:59.026Z,4.55
2019-06-20T10:15:37.027Z,6.28
2019-06-20T10:18:05.917Z,3.77
2019-06-20T10:20:35.131Z,3.98
2019-06-20T10:23:06.078Z,3.30
2019-06-20T10:25:36.962Z,6.72
2019-06-20T10:28:06.409Z,5.67
2019-06-20T10:30:35.721Z,5.45
2019-06-20T10:33:05.604Z,4.37
2019-06-20T10:35:35.478Z,3.62
2019-06-20T10:38:04.869Z,4.70
2019-06-20T10:40:34.817Z,4.62
2019-06-20T10:43:03.405Z,3.60
2019-06-20T10:45:33.039Z,4.45
2019-06-20T10:48:02.313Z,6.62
2019-06-20T10:50:32.704Z,6.15
2019-06-20T10:53:01.966Z,3.70
2019-06-20T10:55:31.160Z,4.15
2019-06-20T10:58:00.302Z,4.50
2019-06-20T11:00:32.237Z,2.52
2019-06-20T11:03:01.071Z,4.50
2019-06-20T11:05:29.837Z,5.03
2019-06-20T11:07:58.512Z,3.80
2019-06-20T11:10:31.438Z,7.70
2019-06-20T11:13:00.187Z,5.15
2019-06-20T11:15:30.907Z,4.15
2019-06-20T11:17:59.570Z,4.85
2019-06-20T11:20:28.777Z,4.17
2019-06-20T11:22:57.669Z,3.95
2019-06-20T11:25:26.451Z,6.53
2019-06-20T11:27:55.629Z,3.43
2019-06-20T11:30:26.892Z,4.40
2019-06-20T11:32:55.478Z,4.40
2019-06-20T11:35:24.037Z,3.20
2019-06-20T11:37:52.674Z,3.53
2019-06-20T11:40:21.808Z,3.87
2019-06-20T11:42:50.458Z,7.30
2019-06-20T11:45:20.165Z,4.83
2019-06-20T11:47:48.966Z,3.62
2019-06-20T11:50:18.448Z,3.70
2019-06-20T11:52:47.047Z,3.98
2019-06-20T11:55:17.342Z,4.47
2019-06-20T11:57:45.996Z,4.85
2019-06-20T12:00:16.693Z,5.00
2019-06-20T12:02:46.092Z,5.58
2019-06-20T12:05:17.468Z,4.00
2019-06-20T12:07:47.893Z,4.12
2019-06-20T12:10:17.564Z,5.12
2019-06-20T12:12:49.278Z,4.08
2019-06-20T12:15:18.676Z,6.45
2019-06-20T12:17:48.844Z,2.95
2019-06-20T12:20:18.621Z,5.28
2019-06-20T12:22:50.535Z,5.05
2019-06-20T12:25:18.204Z,4.35
2019-06-20T12:27:47.612Z,5.73
2019-06-20T12:30:18.001Z,3.83
2019-06-20T12:32:47.551Z,5.77
2019-06-20T12:35:16.180Z,3.67
2019-06-20T12:37:45.197Z,8.03
2019-06-20T12:40:14.903Z,6.70
2019-06-20T12:42:44.759Z,4.30
2019-06-20T12:45:15.737Z,4.97
2019-06-20T12:47:45.913Z,4.23
2019-06-20T12:50:15.737Z,10.20
2019-06-20T12:52:45.693Z,15.57
2019-06-20T12:55:14.965Z,16.27
2019-06-20T12:57:44.185Z,40.87
2019-06-20T13:00:15.383Z,30.17
2019-06-20T13:02:45.453Z,10.67
2019-06-20T13:05:16.537Z,20.47
2019-06-20T13:07:46.754Z,15.20
2019-06-20T13:10:16.008Z,16.87
2019-06-20T13:12:46.423Z,14.60
2019-06-20T13:15:17.103Z,11.67
2019-06-20T13:17:47.024Z,9.73
2019-06-20T13:20:16.534Z,11.77
2019-06-20T13:22:46.604Z,16.23
2019-06-20T13:25:16.918Z,18.10
2019-06-20T13:27:47.829Z,12.87
2019-06-20T13:30:17.107Z,20.43
2019-06-20T13:32:47.137Z,12.90
2019-06-20T13:35:16.563Z,10.17
2019-06-20T13:37:45.691Z,7.33
2019-06-20T13:40:16.125Z,10.83
2019-06-20T13:42:48.055Z,13.13
2019-06-20T13:45:25.039Z,9.63
2019-06-20T13:47:54.500Z,10.47
2019-06-20T13:50:25.120Z,7.97
2019-06-20T13:52:54.783Z,7.27
2019-06-20T13:55:23.741Z,8.33
2019-06-20T13:57:52.606Z,10.73
2019-06-20T14:00:24.260Z,11.37
2019-06-20T14:02:53.055Z,7.47
2019-06-20T14:05:21.878Z,9.17
2019-06-20T14:07:54.270Z,10.60
2019-06-20T14:10:22.646Z,12.47
2019-06-20T14:12:53.382Z,9.37
2019-06-20T14:15:22.179Z,9.17
2019-06-20T14:17:50.955Z,11.47
2019-06-20T14:20:21.777Z,11.80
2019-06-20T14:22:50.492Z,10.10
2019-06-20T14:25:20.120Z,8.90
2019-06-20T14:30:38.270Z,8.93
2019-06-20T14:33:06.893Z,8.17
2019-06-20T14:35:35.640Z,8.73
2019-06-20T14:38:04.273Z,10.57
2019-06-20T14:40:32.829Z,9.93
2019-06-20T14:43:01.566Z,8.80
2019-06-20T14:45:30.321Z,7.93
2019-06-20T14:47:59.473Z,7.90
2019-06-20T14:50:28.203Z,10.80
2019-06-20T14:52:56.888Z,9.20
2019-06-20T14:55:25.546Z,9.97
2019-06-20T14:57:54.737Z,7.60
2019-06-20T15:00:24.727Z,10.73
2019-06-20T15:02:58.098Z,7.83
2019-06-20T15:05:23.971Z,7.70
2019-06-20T15:07:53.942Z,9.27
2019-06-20T15:10:23.468Z,7.17
2019-06-20T15:12:53.719Z,8.57
2019-06-20T15:15:22.887Z,9.67
2019-06-20T15:17:54.017Z,7.93
2019-06-20T15:20:22.403Z,10.47
2019-06-20T15:22:52.721Z,9.13
2019-06-20T15:25:21.659Z,11.90
2019-06-20T15:27:53.146Z,7.90
2019-06-20T15:30:21.765Z,7.00
2019-06-20T15:33:01.797Z,5.30
2019-06-20T15:35:21.070Z,7.27
2019-06-20T15:37:51.262Z,5.80
2019-06-20T15:40:20.251Z,8.93
2019-06-20T15:42:51.092Z,6.10
2019-06-20T15:45:19.848Z,5.80
2019-06-20T15:47:48.636Z,4.60
2019-06-20T15:50:17.655Z,4.97
2019-06-20T15:52:46.657Z,7.03
2019-06-20T15:55:18.793Z,6.13
2019-06-20T15:57:47.743Z,5.90
2019-06-20T16:00:18.338Z,4.67
2019-06-20T16:02:47.069Z,4.30
2019-06-20T16:05:15.769Z,4.70
2019-06-20T16:07:44.372Z,5.20
2019-06-20T16:10:14.373Z,5.77
2019-06-20T16:12:43.142Z,5.10
2019-06-20T16:15:14.013Z,3.47
2019-06-20T16:17:42.663Z,4.00
2019-06-20T16:20:12.259Z,4.33
2019-06-20T16:22:41.155Z,5.40
2019-06-20T16:25:10.096Z,5.50
2019-06-20T16:27:38.930Z,6.43
2019-06-20T16:30:09.830Z,5.50
2019-06-20T16:32:38.549Z,4.77
2019-06-20T16:35:08.382Z,6.07
2019-06-20T16:37:37.228Z,4.60
2019-06-20T16:40:07.217Z,5.33
2019-06-20T16:42:35.894Z,7.50
2019-06-20T16:45:06.403Z,6.27
2019-06-20T16:47:35.424Z,4.27
2019-06-20T16:50:06.027Z,4.43
2019-06-20T16:52:34.861Z,6.87
2019-06-20T16:55:04.050Z,5.80
2019-06-20T16:57:32.722Z,4.43
2019-06-20T17:00:01.297Z,6.70
2019-06-20T17:02:29.886Z,6.80
2019-06-20T17:04:58.444Z,5.80
2019-06-20T17:07:27.649Z,5.43
2019-06-20T17:09:56.250Z,5.87
2019-06-20T17:12:24.924Z,7.60
2019-06-20T17:14:53.587Z,5.30
2019-06-20T17:17:22.295Z,10.10
2019-06-20T17:19:50.882Z,9.83
2019-06-20T17:22:19.535Z,5.90
2019-06-20T17:24:48.157Z,8.30
2019-06-20T17:27:16.767Z,4.93
2019-06-20T17:29:45.352Z,4.67
2019-06-20T17:32:13.977Z,8.00
2019-06-20T17:34:42.646Z,7.87
2019-06-20T17:37:11.338Z,6.73
2019-06-20T17:39:39.929Z,6.50
2019-06-20T17:42:08.582Z,6.43
2019-06-20T17:44:37.163Z,7.77
2019-06-20T17:47:05.963Z,5.30
2019-06-20T17:49:34.505Z,5.20
2019-06-20T17:52:03.226Z,5.30
2019-06-20T17:54:31.852Z,6.00
2019-06-20T17:57:00.442Z,8.80
2019-06-20T17:59:29.021Z,7.53
2019-06-20T18:01:58.100Z,4.57
2019-06-20T18:04:27.010Z,5.17
2019-06-20T18:06:55.929Z,9.73
2019-06-20T18:09:24.512Z,5.73
2019-06-20T18:11:53.135Z,8.27
2019-06-20T18:14:22.083Z,7.37
2019-06-20T18:16:53.009Z,6.73
2019-06-20T18:19:21.870Z,5.43
2019-06-20T18:21:50.457Z,7.63
2019-06-20T18:24:19.493Z,7.50
2019-06-20T18:26:51.091Z,9.33
2019-06-20T18:29:21.191Z,6.33
2019-06-20T18:31:51.529Z,8.97
2019-06-20T18:34:29.687Z,7.00
2019-06-20T18:36:50.425Z,10.03
2019-06-20T18:39:19.159Z,7.93
2019-06-20T18:41:48.695Z,9.70
2019-06-20T18:44:17.366Z,5.87
2019-06-20T18:46:45.922Z,6.60
2019-06-20T18:49:14.563Z,7.00
2019-06-20T18:51:43.201Z,10.17
2019-06-20T18:54:12.902Z,6.37
2019-06-20T18:56:41.605Z,10.30
2019-06-20T18:59:10.366Z,9.33
2019-06-20T19:01:39.731Z,10.83
2019-06-20T19:04:08.523Z,9.67
2019-06-20T19:06:37.238Z,10.83
2019-06-20T19:09:08.407Z,9.97
2019-06-20T19:11:37.147Z,9.23
2019-06-20T19:14:07.008Z,8.33
2019-06-20T19:16:35.686Z,11.77
2019-06-20T19:19:04.939Z,8.77
2019-06-20T19:21:34.089Z,10.60
2019-06-20T19:24:04.561Z,8.87
2019-06-20T19:26:34.264Z,11.00
2019-06-20T19:29:05.589Z,8.97
2019-06-20T19:31:35.040Z,7.80
2019-06-20T19:34:04.495Z,8.73
2019-06-20T19:36:33.610Z,8.40
2019-06-20T19:39:03.403Z,11.60
2019-06-20T19:41:32.222Z,10.63
2019-06-20T19:44:01.953Z,9.43
2019-06-20T19:46:30.979Z,10.30
2019-06-20T19:49:00.138Z,8.47
2019-06-20T19:51:29.421Z,10.23
2019-06-20T19:53:58.782Z,10.77
2019-06-20T19:56:29.622Z,10.07
2019-06-20T19:58:58.719Z,8.77
2019-06-20T20:01:27.864Z,9.47
2019-06-20T20:03:58.889Z,13.60
2019-06-20T20:06:29.947Z,12.13
2019-06-20T20:08:59.133Z,15.67
2019-06-20T20:11:28.491Z,19.07
2019-06-20T20:13:57.747Z,17.00
2019-06-20T20:16:26.819Z,13.87
2019-06-20T20:18:55.586Z,12.77
2019-06-20T20:21:24.347Z,17.23
2019-06-20T20:23:53.093Z,13.83
2019-06-20T20:26:22.066Z,14.30
2019-06-20T20:28:50.997Z,11.03
2019-06-20T20:31:20.930Z,8.13
2019-06-20T20:33:49.548Z,10.77
2019-06-20T20:36:24.921Z,14.03
2019-06-20T20:38:48.560Z,21.70
2019-06-20T20:41:17.117Z,13.13
2019-06-20T20:43:46.300Z,25.17
2019-06-20T20:46:15.357Z,11.57
2019-06-20T20:48:44.029Z,15.43
2019-06-20T20:51:12.580Z,10.97
2019-06-20T20:53:41.570Z,19.00
2019-06-20T20:56:10.422Z,13.03
2019-06-20T20:58:39.558Z,14.87
2019-06-20T21:01:29.051Z,12.67
2019-06-20T21:03:58.125Z,18.97
2019-06-20T21:06:27.700Z,19.63
2019-06-20T21:08:56.513Z,14.47
2019-06-20T21:11:25.221Z,32.47
2019-06-20T21:13:53.940Z,34.73
2019-06-20T21:16:22.524Z,29.20
2019-06-20T21:18:51.267Z,24.90
2019-06-20T21:21:20.166Z,20.83
2019-06-20T21:23:48.877Z,13.83
2019-06-20T21:26:17.739Z,15.97
2019-06-20T21:28:46.328Z,9.03
2019-06-20T21:31:15.156Z,14.40
2019-06-20T21:33:43.838Z,14.03
2019-06-20T21:36:12.543Z,13.53
2019-06-20T21:38:41.244Z,14.30
2019-06-20T21:41:10.034Z,10.80
2019-06-20T21:43:39.105Z,15.40
2019-06-20T21:46:08.028Z,24.77
2019-06-20T21:48:36.617Z,17.33
2019-06-20T21:51:05.553Z,34.67
2019-06-20T21:53:34.204Z,37.40
2019-06-20T21:56:02.873Z,43.23
2019-06-20T21:58:31.505Z,30.93
2019-06-20T22:01:01.620Z,33.83
2019-06-20T22:03:30.814Z,30.77
2019-06-20T22:05:59.734Z,19.37
2019-06-20T22:08:28.452Z,14.87
2019-06-20T22:10:57.305Z,15.17
2019-06-20T22:13:26.090Z,11.47
2019-06-20T22:15:54.823Z,15.47
2019-06-20T22:18:23.551Z,13.80
2019-06-20T22:20:52.284Z,15.77
2019-06-20T22:23:20.967Z,14.40
2019-06-20T22:25:49.710Z,15.00
2019-06-20T22:28:18.467Z,12.63
2019-06-20T22:30:52.867Z,11.77
2019-06-20T22:33:21.779Z,46.30
2019-06-20T22:35:50.625Z,17.00
2019-06-20T22:38:19.425Z,13.90
2019-06-20T22:40:48.354Z,18.23
2019-06-20T22:43:17.051Z,12.70
2019-06-20T22:45:46.146Z,13.33
2019-06-20T22:48:14.813Z,38.67
2019-06-20T22:50:43.615Z,54.93
2019-06-20T22:53:12.277Z,49.50
2019-06-20T22:55:40.842Z,40.13
2019-06-20T22:58:10.001Z,21.60
2019-06-20T23:00:38.630Z,35.40
2019-06-20T23:03:07.378Z,37.90
2019-06-20T23:05:36.013Z,35.97
2019-06-20T23:08:04.850Z,22.80
2019-06-20T23:10:33.481Z,32.50
2019-06-20T23:13:02.087Z,38.07
2019-06-20T23:15:30.646Z,26.57
2019-06-20T23:17:59.301Z,43.73
2019-06-20T23:20:27.865Z,52.10
2019-06-20T23:22:56.422Z,37.33
2019-06-20T23:25:25.029Z,29.57
2019-06-20T23:27:53.657Z,26.73
2019-06-20T23:30:22.795Z,54.40
2019-06-20T23:32:51.490Z,57.27
2019-06-20T23:35:20.085Z,61.93
2019-06-20T23:37:48.645Z,26.80
2019-06-20T23:40:17.669Z,32.63
2019-06-20T23:42:46.310Z,32.23
2019-06-20T23:45:15.817Z,43.07
2019-06-20T23:47:44.409Z,37.57
2019-06-20T23:50:19.635Z,25.90
2019-06-20T23:53:00.914Z,21.47
2019-06-20T23:55:29.496Z,17.40
2019-06-20T23:57:58.317Z,24.63
